Time;durP1;ratioP1;P1;durP2;ratioP2;P2;SDS_P1;SDS_P2;PMS_P1;PMS_P2;Temp;Humidity;BMP_temperature;BMP_pressure;BME280_temperature;BME280_humidity;BME280_pressure;Samples;Min_cycle;Max_cycle;Signal;HPM_P1;HPM_P2
2021/07/17 00:01:45;;;;;;;;;22.00;20.75;;;;;;;;5073876;27;51908;-55
2021/07/17 00:04:10;;;;;;;;;20.75;18.75;;;;;;;;5073614;28;51032;-54
2021/07/17 00:06:36;;;;;;;;;19.25;18.50;;;;;;;;5075400;27;51135;-53
2021/07/17 00:09:01;;;;;;;;;22.00;19.50;;;;;;;;5075171;27;51072;-58
2021/07/17 00:11:26;;;;;;;;;18.75;17.75;;;;;;;;5072764;27;51106;-56
2021/07/17 00:13:52;;;;;;;;;20.00;19.00;;;;;;;;5074942;28;51044;-54
2021/07/17 00:16:18;;;;;;;;;19.00;17.00;;;;;;;;5073690;27;51048;-56
2021/07/17 00:18:43;;;;;;;;;16.25;16.25;;;;;;;;5073605;28;51021;-54
2021/07/17 00:21:08;;;;;;;;;14.00;14.00;;;;;;;;5068399;27;51905;-55
2021/07/17 00:23:33;;;;;;;;;18.50;16.75;;;;;;;;5074823;27;51052;-55
2021/07/17 00:25:59;;;;;;;;;20.00;18.00;;;;;;;;5075063;27;51068;-55
2021/07/17 00:28:24;;;;;;;;;21.75;19.75;;;;;;;;5074775;28;50953;-55
2021/07/17 00:30:49;;;;;;;;;20.25;17.00;;;;;;;;5064934;28;52064;-54
2021/07/17 00:33:14;;;;;;;;;18.00;17.25;;;;;;;;5074107;27;51201;-53
2021/07/17 00:35:40;;;;;;;;;19.25;18.00;;;;;;;;5066984;28;51119;-55
2021/07/17 00:38:05;;;;;;;;;19.00;17.75;;;;;;;;5073407;27;51179;-53
2021/07/17 00:40:32;;;;;;;;;17.00;16.50;;;;;;;;5072503;27;51765;-55
2021/07/17 00:42:57;;;;;;;;;17.75;16.50;;;;;;;;5063015;28;51064;-55
2021/07/17 00:45:22;;;;;;;;;18.25;18.25;;;;;;;;5071151;28;50941;-58
2021/07/17 00:47:48;;;;;;;;;17.00;17.00;;;;;;;;5075248;28;51133;-56
2021/07/17 00:50:14;;;;;;;;;16.50;15.50;;;;;;;;5071960;27;51989;-55
2021/07/17 00:52:40;;;;;;;;;14.00;14.00;;;;;;;;5074761;27;51314;-55
2021/07/17 00:55:06;;;;;;;;;21.25;18.75;;;;;;;;5074538;27;50961;-55
2021/07/17 00:57:33;;;;;;;;;18.50;17.25;;;;;;;;5072637;27;51207;-55
2021/07/17 00:59:59;;;;;;;;;22.00;21.50;;;;;;;;5070775;27;52164;-55
2021/07/17 01:02:24;;;;;;;;;17.50;16.00;;;;;;;;5065855;28;50959;-55
2021/07/17 01:04:51;;;;;;;;;18.50;18.50;;;;;;;;5073912;27;51263;-55
2021/07/17 01:07:17;;;;;;;;;19.25;18.25;;;;;;;;5074819;28;51340;-55
2021/07/17 01:09:42;;;;;;;;;16.75;15.25;;;;;;;;5071788;28;51331;-55
2021/07/17 01:12:07;;;;;;;;;20.75;19.50;;;;;;;;5072374;27;51129;-56
2021/07/17 01:14:33;;;;;;;;;19.50;19.00;;;;;;;;5070986;28;50970;-56
2021/07/17 01:16:58;;;;;;;;;21.25;20.75;;;;;;;;5069736;28;50935;-56
2021/07/17 01:19:24;;;;;;;;;19.75;18.75;;;;;;;;5071459;27;52280;-55
2021/07/17 01:21:53;;;;;;;;;21.75;19.00;;;;;;;;5069525;27;51060;-56
2021/07/17 01:24:19;;;;;;;;;26.00;22.50;;;;;;;;5074046;27;51009;-55
2021/07/17 01:26:44;;;;;;;;;20.25;19.00;;;;;;;;5074424;28;51093;-56
2021/07/17 01:29:09;;;;;;;;;20.75;20.00;;;;;;;;5070899;27;52764;-56
2021/07/17 01:31:35;;;;;;;;;16.75;16.25;;;;;;;;5065298;27;51201;-55
2021/07/17 01:34:00;;;;;;;;;13.00;12.25;;;;;;;;5063397;28;51041;-55
2021/07/17 01:36:25;;;;;;;;;20.50;19.00;;;;;;;;5071952;27;51147;-56
2021/07/17 01:38:50;;;;;;;;;21.00;20.75;;;;;;;;5073877;27;51246;-55
2021/07/17 01:41:17;;;;;;;;;17.75;17.50;;;;;;;;5071047;27;51111;-56
2021/07/17 01:43:42;;;;;;;;;20.50;19.00;;;;;;;;5064471;28;50922;-56
2021/07/17 01:46:07;;;;;;;;;19.00;18.50;;;;;;;;5074039;28;51033;-56
2021/07/17 01:48:32;;;;;;;;;21.25;20.00;;;;;;;;5073716;27;50997;-56
2021/07/17 01:50:58;;;;;;;;;21.75;20.00;;;;;;;;5073217;27;51038;-55
2021/07/17 01:53:23;;;;;;;;;23.25;18.75;;;;;;;;5071982;27;51096;-56
2021/07/17 01:55:48;;;;;;;;;20.50;18.00;;;;;;;;5070284;27;51017;-55
2021/07/17 01:58:13;;;;;;;;;21.00;18.25;;;;;;;;5064939;28;51237;-55
2021/07/17 02:00:39;;;;;;;;;19.00;18.00;;;;;;;;5072986;27;51068;-55
2021/07/17 02:03:05;;;;;;;;;23.00;20.75;;;;;;;;5073551;28;51306;-52
2021/07/17 02:05:30;;;;;;;;;18.25;18.00;;;;;;;;5058626;27;51121;-54
2021/07/17 02:07:56;;;;;;;;;21.50;20.25;;;;;;;;5068021;27;51878;-55
2021/07/17 02:10:22;;;;;;;;;22.00;18.75;;;;;;;;5071441;27;50911;-56
2021/07/17 02:13:03;;;;;;;;;23.25;22.00;;;;;;;;5073776;27;50988;-57
2021/07/17 02:15:29;;;;;;;;;21.75;18.50;;;;;;;;5060875;27;51192;-54
2021/07/17 02:17:55;;;;;;;;;23.25;22.25;;;;;;;;5066011;27;51897;-53
2021/07/17 02:20:20;;;;;;;;;18.75;17.75;;;;;;;;5071494;28;51178;-53
2021/07/17 02:22:45;;;;;;;;;24.00;22.00;;;;;;;;5073561;27;50928;-55
2021/07/17 02:25:11;;;;;;;;;21.00;18.50;;;;;;;;5071946;27;51094;-55
2021/07/17 02:27:36;;;;;;;;;21.00;18.50;;;;;;;;5070424;27;51089;-55
2021/07/17 02:30:03;;;;;;;;;25.25;22.75;;;;;;;;5073299;28;51247;-56
2021/07/17 02:32:28;;;;;;;;;20.00;19.00;;;;;;;;5069178;27;51119;-55
2021/07/17 02:34:53;;;;;;;;;20.75;19.75;;;;;;;;5068084;28;51170;-55
2021/07/17 02:37:20;;;;;;;;;23.50;23.00;;;;;;;;5067825;27;51312;-55
2021/07/17 02:39:45;;;;;;;;;22.50;19.00;;;;;;;;5073151;28;51081;-56
2021/07/17 02:42:10;;;;;;;;;25.50;22.75;;;;;;;;5072563;27;51092;-56
2021/07/17 02:44:36;;;;;;;;;21.50;19.75;;;;;;;;5071997;28;51500;-53
2021/07/17 02:47:01;;;;;;;;;19.00;17.50;;;;;;;;5057035;27;52126;-56
2021/07/17 02:49:26;;;;;;;;;22.00;21.25;;;;;;;;5072779;27;51096;-54
2021/07/17 02:51:51;;;;;;;;;24.00;21.50;;;;;;;;5069330;27;51060;-53
2021/07/17 02:54:17;;;;;;;;;18.50;18.00;;;;;;;;5073084;27;51381;-54
2021/07/17 02:56:42;;;;;;;;;22.75;20.50;;;;;;;;5071927;27;52625;-54
2021/07/17 02:59:08;;;;;;;;;23.50;23.00;;;;;;;;5063208;28;50933;-53
2021/07/17 03:01:33;;;;;;;;;23.25;21.50;;;;;;;;5072616;27;51037;-54
2021/07/17 03:03:58;;;;;;;;;21.50;20.00;;;;;;;;5072912;28;51333;-53
2021/07/17 03:06:24;;;;;;;;;20.25;19.50;;;;;;;;5069662;28;51150;-55
2021/07/17 03:08:49;;;;;;;;;22.50;20.25;;;;;;;;5071869;27;50915;-54
2021/07/17 03:11:14;;;;;;;;;25.00;23.25;;;;;;;;5072449;27;51015;-53
2021/07/17 03:13:39;;;;;;;;;24.00;23.00;;;;;;;;5070458;28;50998;-53
2021/07/17 03:16:05;;;;;;;;;26.75;26.25;;;;;;;;5061733;27;51210;-54
2021/07/17 03:18:30;;;;;;;;;18.75;18.75;;;;;;;;5069950;28;51065;-55
2021/07/17 03:20:55;;;;;;;;;25.75;23.25;;;;;;;;5072621;27;51065;-55
2021/07/17 03:23:20;;;;;;;;;27.25;23.00;;;;;;;;5063956;27;51312;-55
2021/07/17 03:25:45;;;;;;;;;20.00;19.33;;;;;;;;5069368;28;51812;-55
2021/07/17 03:28:11;;;;;;;;;24.00;22.50;;;;;;;;5072516;27;50831;-56
2021/07/17 03:30:36;;;;;;;;;25.50;23.75;;;;;;;;5071098;27;50908;-55
2021/07/17 03:33:01;;;;;;;;;24.25;24.25;;;;;;;;5065342;28;50828;-55
2021/07/17 03:35:26;;;;;;;;;21.00;20.75;;;;;;;;5061061;28;51309;-55
2021/07/17 03:37:51;;;;;;;;;23.25;22.50;;;;;;;;5069105;28;51040;-55
2021/07/17 03:40:17;;;;;;;;;27.25;23.25;;;;;;;;5072600;27;51169;-54
2021/07/17 03:42:42;;;;;;;;;20.25;16.00;;;;;;;;5071929;28;51073;-55
2021/07/17 03:45:08;;;;;;;;;23.75;22.25;;;;;;;;5062616;28;51037;-55
2021/07/17 03:47:33;;;;;;;;;25.25;23.00;;;;;;;;5070821;28;51017;-54
2021/07/17 03:49:59;;;;;;;;;25.50;25.00;;;;;;;;5072032;27;50920;-55
2021/07/17 03:52:24;;;;;;;;;27.50;25.75;;;;;;;;5067754;27;51044;-54
2021/07/17 03:54:50;;;;;;;;;24.50;23.25;;;;;;;;5060106;28;51051;-55
2021/07/17 03:57:15;;;;;;;;;22.75;22.00;;;;;;;;5068816;27;50823;-56
2021/07/17 03:59:40;;;;;;;;;21.50;21.25;;;;;;;;5060967;28;51198;-55
2021/07/17 04:02:05;;;;;;;;;25.25;23.75;;;;;;;;5069750;27;51108;-56
2021/07/17 04:04:31;;;;;;;;;23.50;22.00;;;;;;;;5060739;28;51133;-55
2021/07/17 04:06:56;;;;;;;;;27.00;25.75;;;;;;;;5068573;27;50997;-55
2021/07/17 04:09:21;;;;;;;;;27.75;25.75;;;;;;;;5062640;28;50882;-55
2021/07/17 04:11:46;;;;;;;;;28.00;25.00;;;;;;;;5072292;27;51194;-55
2021/07/17 04:14:11;;;;;;;;;24.75;24.00;;;;;;;;5069686;27;51982;-54
2021/07/17 04:16:37;;;;;;;;;28.25;25.50;;;;;;;;5070574;28;51131;-55
2021/07/17 04:19:02;;;;;;;;;27.50;25.75;;;;;;;;5069427;27;51047;-55
2021/07/17 04:21:27;;;;;;;;;22.75;21.75;;;;;;;;5070815;27;50994;-56
2021/07/17 04:23:52;;;;;;;;;28.00;25.75;;;;;;;;5072106;28;51968;-55
2021/07/17 04:26:17;;;;;;;;;27.75;26.25;;;;;;;;5075133;27;51247;-54
2021/07/17 04:28:43;;;;;;;;;26.25;24.00;;;;;;;;5068530;27;51235;-55
2021/07/17 04:31:08;;;;;;;;;23.50;20.00;;;;;;;;5075333;27;51017;-55
2021/07/17 04:33:33;;;;;;;;;23.25;22.50;;;;;;;;5071513;28;52157;-54
2021/07/17 04:35:58;;;;;;;;;26.00;24.75;;;;;;;;5062027;28;51026;-56
2021/07/17 04:38:24;;;;;;;;;27.50;24.25;;;;;;;;5064610;28;50988;-54
2021/07/17 04:40:49;;;;;;;;;26.00;24.25;;;;;;;;5075432;27;51323;-55
2021/07/17 04:43:14;;;;;;;;;23.25;22.50;;;;;;;;5074057;27;52386;-55
2021/07/17 04:45:39;;;;;;;;;17.75;17.75;;;;;;;;5071329;27;51077;-55
2021/07/17 04:48:05;;;;;;;;;26.50;23.00;;;;;;;;5061975;28;51200;-55
2021/07/17 04:50:34;;;;;;;;;32.50;28.00;;;;;;;;5073490;28;51334;-56
2021/07/17 04:52:59;;;;;;;;;24.25;23.00;;;;;;;;5073132;27;52926;-55
2021/07/17 04:55:25;;;;;;;;;22.25;21.00;;;;;;;;5073402;27;50993;-54
2021/07/17 04:57:50;;;;;;;;;26.75;24.00;;;;;;;;5068637;28;51088;-55
2021/07/17 05:00:16;;;;;;;;;23.25;22.75;;;;;;;;5074486;27;51119;-55
2021/07/17 05:02:45;;;;;;;;;25.00;25.00;;;;;;;;5072459;28;51792;-55
2021/07/17 05:05:10;;;;;;;;;22.25;21.75;;;;;;;;5074269;27;51057;-54
2021/07/17 05:07:36;;;;;;;;;24.75;22.25;;;;;;;;5072213;28;51114;-55
2021/07/17 05:10:01;;;;;;;;;26.00;25.25;;;;;;;;5074888;27;51084;-56
2021/07/17 05:12:26;;;;;;;;;23.25;23.00;;;;;;;;5073296;27;51068;-56
2021/07/17 05:14:51;;;;;;;;;30.00;25.50;;;;;;;;5074608;27;50954;-53
2021/07/17 05:17:16;;;;;;;;;21.00;20.00;;;;;;;;5070124;28;51068;-55
2021/07/17 05:19:41;;;;;;;;;26.75;24.50;;;;;;;;5074324;27;50885;-55
2021/07/17 05:22:07;;;;;;;;;26.50;24.75;;;;;;;;5074059;27;52358;-54
2021/07/17 05:24:32;;;;;;;;;26.25;24.75;;;;;;;;5074434;27;51091;-55
2021/07/17 05:26:57;;;;;;;;;27.25;25.50;;;;;;;;5072407;27;51046;-54
2021/07/17 05:29:22;;;;;;;;;27.25;26.75;;;;;;;;5074093;27;50936;-55
2021/07/17 05:31:48;;;;;;;;;31.00;26.50;;;;;;;;5072831;27;51106;-56
2021/07/17 05:34:13;;;;;;;;;32.75;28.75;;;;;;;;5071810;27;51284;-55
2021/07/17 05:36:38;;;;;;;;;27.00;24.75;;;;;;;;5065678;27;51036;-55
2021/07/17 05:39:03;;;;;;;;;26.25;24.00;;;;;;;;5073902;28;51368;-55
2021/07/17 05:41:28;;;;;;;;;26.25;24.25;;;;;;;;5070851;28;51929;-55
2021/07/17 05:43:53;;;;;;;;;22.75;22.50;;;;;;;;5073554;27;50949;-54
2021/07/17 05:46:19;;;;;;;;;24.00;23.00;;;;;;;;5069437;27;50995;-54
2021/07/17 05:48:44;;;;;;;;;29.00;26.75;;;;;;;;5073843;27;50878;-54
2021/07/17 05:51:09;;;;;;;;;26.25;24.75;;;;;;;;5072851;28;51332;-55
2021/07/17 05:53:35;;;;;;;;;32.25;30.25;;;;;;;;5069482;27;51057;-56
2021/07/17 05:56:00;;;;;;;;;22.50;22.00;;;;;;;;5071449;28;51021;-53
2021/07/17 05:58:26;;;;;;;;;23.25;22.00;;;;;;;;5069225;27;51263;-53
2021/07/17 06:00:51;;;;;;;;;27.50;25.50;;;;;;;;5071086;27;51911;-54
2021/07/17 06:03:16;;;;;;;;;26.50;25.25;;;;;;;;5067706;28;50954;-54
2021/07/17 06:05:41;;;;;;;;;30.75;30.00;;;;;;;;5073451;27;51012;-55
2021/07/17 06:08:06;;;;;;;;;24.00;22.75;;;;;;;;5073735;28;51218;-55
2021/07/17 06:10:32;;;;;;;;;23.00;23.00;;;;;;;;5071194;28;51984;-55
2021/07/17 06:12:58;;;;;;;;;25.50;24.00;;;;;;;;5064022;27;51004;-55
2021/07/17 06:15:23;;;;;;;;;27.25;26.25;;;;;;;;5072373;27;51208;-54
2021/07/17 06:17:53;;;;;;;;;25.25;24.50;;;;;;;;5073535;27;51459;-54
2021/07/17 06:20:18;;;;;;;;;26.00;23.00;;;;;;;;5072266;27;53168;-54
2021/07/17 06:22:43;;;;;;;;;29.50;27.75;;;;;;;;5059084;28;50919;-54
2021/07/17 06:25:08;;;;;;;;;28.00;26.75;;;;;;;;5073823;27;50990;-55
2021/07/17 06:27:34;;;;;;;;;31.00;27.25;;;;;;;;5071906;28;50893;-54
2021/07/17 06:29:59;;;;;;;;;28.25;27.00;;;;;;;;5073485;27;51109;-54
2021/07/17 06:32:25;;;;;;;;;25.25;24.25;;;;;;;;5066274;27;51160;-56
2021/07/17 06:34:50;;;;;;;;;24.75;23.75;;;;;;;;5075452;27;51702;-56
2021/07/17 06:37:15;;;;;;;;;31.00;27.50;;;;;;;;5071584;27;51419;-55
2021/07/17 06:39:40;;;;;;;;;28.25;26.50;;;;;;;;5069319;27;51961;-57
2021/07/17 06:42:06;;;;;;;;;31.75;28.50;;;;;;;;5062266;28;50946;-56
2021/07/17 06:44:31;;;;;;;;;32.00;30.00;;;;;;;;5072912;27;51158;-54
2021/07/17 06:46:56;;;;;;;;;24.00;19.50;;;;;;;;5072937;27;51096;-56
2021/07/17 06:49:21;;;;;;;;;27.50;25.00;;;;;;;;5071311;27;51299;-56
2021/07/17 06:51:47;;;;;;;;;29.75;28.75;;;;;;;;5066681;28;51108;-57
2021/07/17 06:54:12;;;;;;;;;28.75;28.00;;;;;;;;5072656;27;50922;-57
2021/07/17 06:56:37;;;;;;;;;26.25;25.50;;;;;;;;5067660;27;51061;-56
2021/07/17 06:59:02;;;;;;;;;30.50;28.00;;;;;;;;5068310;28;51760;-55
2021/07/17 07:01:28;;;;;;;;;30.25;28.50;;;;;;;;5054211;28;51146;-53
2021/07/17 07:03:53;;;;;;;;;30.25;27.75;;;;;;;;5060838;28;51139;-55
2021/07/17 07:06:18;;;;;;;;;31.25;28.50;;;;;;;;5057955;27;51149;-57
2021/07/17 07:08:43;;;;;;;;;27.25;25.00;;;;;;;;5056955;28;51997;-56
2021/07/17 07:11:09;;;;;;;;;26.75;24.25;;;;;;;;5071282;28;50958;-55
2021/07/17 07:13:34;;;;;;;;;31.50;26.00;;;;;;;;5075381;27;51013;-54
2021/07/17 07:15:59;;;;;;;;;27.50;27.25;;;;;;;;5071624;28;51160;-54
2021/07/17 07:18:24;;;;;;;;;24.00;22.75;;;;;;;;5071935;27;53077;-56
2021/07/17 07:20:50;;;;;;;;;22.75;21.75;;;;;;;;5072161;28;51061;-55
2021/07/17 07:23:15;;;;;;;;;28.25;25.25;;;;;;;;5072176;27;51136;-56
2021/07/17 07:25:41;;;;;;;;;27.50;26.75;;;;;;;;5072390;27;51310;-54
2021/07/17 07:28:06;;;;;;;;;25.75;23.00;;;;;;;;5070652;27;52422;-55
2021/07/17 07:30:31;;;;;;;;;26.00;22.75;;;;;;;;5072261;27;50950;-56
2021/07/17 07:32:57;;;;;;;;;26.00;23.25;;;;;;;;5072154;27;51276;-53
2021/07/17 07:35:23;;;;;;;;;25.00;23.75;;;;;;;;5072215;28;51000;-55
2021/07/17 07:37:50;;;;;;;;;23.75;23.75;;;;;;;;5072043;28;52092;-54
2021/07/17 07:40:15;;;;;;;;;28.50;21.75;;;;;;;;5071727;27;51020;-54
2021/07/17 07:42:41;;;;;;;;;19.25;18.75;;;;;;;;5072037;27;50947;-53
2021/07/17 07:45:06;;;;;;;;;23.00;21.25;;;;;;;;5072125;27;51445;-55
2021/07/17 07:47:31;;;;;;;;;28.00;25.75;;;;;;;;5071767;27;52666;-55
2021/07/17 07:49:57;;;;;;;;;29.75;26.75;;;;;;;;5071554;28;50946;-56
2021/07/17 07:52:22;;;;;;;;;27.00;26.25;;;;;;;;5072088;27;51043;-57
2021/07/17 07:54:48;;;;;;;;;24.25;23.25;;;;;;;;5071710;27;50932;-55
2021/07/17 07:57:13;;;;;;;;;24.50;24.50;;;;;;;;5071741;27;53282;-56
2021/07/17 07:59:38;;;;;;;;;28.75;27.75;;;;;;;;5066245;27;51194;-54
2021/07/17 08:02:03;;;;;;;;;28.25;27.25;;;;;;;;5067522;28;50951;-55
2021/07/17 08:04:29;;;;;;;;;28.75;26.75;;;;;;;;5074652;27;51214;-54
2021/07/17 08:06:54;;;;;;;;;30.00;29.00;;;;;;;;5074442;27;51993;-55
2021/07/17 08:09:19;;;;;;;;;33.25;30.50;;;;;;;;5074969;27;51375;-54
2021/07/17 08:11:44;;;;;;;;;30.25;28.75;;;;;;;;5074855;27;51162;-55
2021/07/17 08:14:10;;;;;;;;;35.25;30.50;;;;;;;;5075088;27;51374;-55
2021/07/17 08:16:35;;;;;;;;;34.75;28.75;;;;;;;;5074688;27;51016;-55
2021/07/17 08:19:00;;;;;;;;;28.00;25.75;;;;;;;;5073565;27;51048;-55
2021/07/17 08:21:25;;;;;;;;;29.75;29.00;;;;;;;;5071414;28;51137;-54
2021/07/17 08:23:51;;;;;;;;;30.25;28.25;;;;;;;;5074850;27;51020;-55
2021/07/17 08:26:17;;;;;;;;;28.25;27.00;;;;;;;;5074131;28;51815;-55
2021/07/17 08:28:42;;;;;;;;;29.00;26.75;;;;;;;;5074687;27;51092;-55
2021/07/17 08:31:07;;;;;;;;;27.00;25.75;;;;;;;;5074540;27;50994;-55
2021/07/17 08:33:32;;;;;;;;;27.75;24.50;;;;;;;;5074755;27;51319;-55
2021/07/17 08:35:58;;;;;;;;;26.75;25.50;;;;;;;;5073397;28;52756;-56
2021/07/17 08:38:23;;;;;;;;;28.25;26.75;;;;;;;;5074686;27;50851;-56
2021/07/17 08:40:53;;;;;;;;;29.25;27.00;;;;;;;;5074911;27;50958;-55
2021/07/17 08:43:18;;;;;;;;;30.25;28.00;;;;;;;;5074905;27;51059;-55
2021/07/17 08:45:44;;;;;;;;;27.50;26.50;;;;;;;;5074211;28;52212;-55
2021/07/17 08:48:10;;;;;;;;;26.00;26.00;;;;;;;;5074267;28;51035;-56
2021/07/17 08:50:35;;;;;;;;;27.33;25.00;;;;;;;;5074411;27;50941;-55
2021/07/17 08:53:01;;;;;;;;;28.75;26.00;;;;;;;;5074327;27;51302;-54
2021/07/17 08:55:27;;;;;;;;;24.75;24.75;;;;;;;;5073454;27;51820;-54
2021/07/17 08:57:53;;;;;;;;;25.50;24.75;;;;;;;;5074063;28;50970;-55
2021/07/17 09:00:22;;;;;;;;;22.00;21.50;;;;;;;;5074090;27;50816;-54
2021/07/17 09:02:48;;;;;;;;;26.00;25.50;;;;;;;;5074611;27;51120;-55
2021/07/17 09:05:17;;;;;;;;;27.50;27.00;;;;;;;;5073194;27;53253;-55
2021/07/17 09:07:43;;;;;;;;;27.50;26.50;;;;;;;;5073657;27;51323;-55
2021/07/17 09:10:27;;;;;;;;;26.00;24.33;;;;;;;;5073500;27;51160;-55
2021/07/17 09:13:11;;;;;;;;;25.67;24.67;;;;;;;;5073583;27;50966;-55
2021/07/17 09:15:37;;;;;;;;;24.50;24.50;;;;;;;;5061096;28;52046;-55
2021/07/17 09:18:03;;;;;;;;;24.00;23.67;;;;;;;;5073957;27;50878;-56
2021/07/17 09:20:28;;;;;;;;;26.67;25.00;;;;;;;;5073958;27;50880;-55
2021/07/17 09:22:58;;;;;;;;;23.75;22.00;;;;;;;;5074244;28;51013;-57
2021/07/17 09:25:23;;;;;;;;;24.25;23.25;;;;;;;;5073515;27;52936;-55
2021/07/17 09:27:48;;;;;;;;;26.33;24.67;;;;;;;;5073714;27;51099;-56
2021/07/17 09:30:26;;;;;;;;;27.67;26.67;;;;;;;;5073758;27;51140;-55
2021/07/17 09:33:01;;;;;;;;;24.33;23.67;;;;;;;;5073976;27;51309;-56
2021/07/17 09:35:26;;;;;;;;;24.00;22.67;;;;;;;;5073306;28;51217;-56
2021/07/17 09:37:55;;;;;;;;;22.00;21.00;;;;;;;;5073159;27;50878;-57
2021/07/17 09:40:21;;;;;;;;;25.25;23.00;;;;;;;;5072135;27;51005;-55
2021/07/17 09:42:46;;;;;;;;;24.00;23.25;;;;;;;;5073559;27;51174;-57
2021/07/17 09:45:11;;;;;;;;;23.25;22.25;;;;;;;;5071812;28;53288;-56
2021/07/17 09:47:37;;;;;;;;;24.75;24.75;;;;;;;;5073281;27;51099;-56
2021/07/17 09:50:17;;;;;;;;;21.50;20.50;;;;;;;;5072903;28;51241;-56
2021/07/17 09:52:44;;;;;;;;;24.67;23.33;;;;;;;;5073611;28;51140;-56
2021/07/17 09:55:14;;;;;;;;;23.00;23.00;;;;;;;;5072258;27;51927;-57
2021/07/17 09:57:40;;;;;;;;;28.25;25.25;;;;;;;;5073020;27;51179;-56
2021/07/17 10:00:11;;;;;;;;;22.00;20.67;;;;;;;;5070560;27;51201;-56
2021/07/17 10:02:37;;;;;;;;;26.25;23.00;;;;;;;;5059973;28;51138;-56
2021/07/17 10:05:15;;;;;;;;;24.33;23.00;;;;;;;;5065941;28;51714;-56
2021/07/17 10:07:40;;;;;;;;;25.25;22.25;;;;;;;;5072042;27;50979;-56
2021/07/17 10:10:06;;;;;;;;;22.00;21.33;;;;;;;;5071742;28;51071;-54
2021/07/17 10:12:33;;;;;;;;;26.00;24.00;;;;;;;;5072478;27;50881;-55
2021/07/17 10:14:59;;;;;;;;;24.33;24.00;;;;;;;;5071325;27;52120;-55
2021/07/17 10:17:33;;;;;;;;;25.00;24.33;;;;;;;;5072050;27;51029;-55
2021/07/17 10:20:00;;;;;;;;;25.33;23.00;;;;;;;;5071948;28;51176;-55
2021/07/17 10:22:25;;;;;;;;;27.75;26.75;;;;;;;;5070913;27;51533;-57
2021/07/17 10:24:51;;;;;;;;;24.00;24.00;;;;;;;;5072104;27;52005;-58
2021/07/17 10:27:16;;;;;;;;;27.75;26.75;;;;;;;;5072386;27;51012;-55
2021/07/17 10:29:42;;;;;;;;;26.50;25.25;;;;;;;;5072715;28;50982;-55
2021/07/17 10:32:07;;;;;;;;;25.75;25.00;;;;;;;;5072850;27;50991;-54
2021/07/17 10:34:34;;;;;;;;;27.00;25.00;;;;;;;;5072047;28;51846;-55
2021/07/17 10:37:20;;;;;;;;;24.75;24.00;;;;;;;;5071861;27;50922;-55
2021/07/17 10:39:51;;;;;;;;;28.25;27.75;;;;;;;;5057492;28;51189;-54
2021/07/17 10:42:19;;;;;;;;;27.00;27.00;;;;;;;;5071113;27;51250;-55
2021/07/17 10:44:47;;;;;;;;;26.50;26.00;;;;;;;;5070984;27;51931;-55
2021/07/17 10:47:12;;;;;;;;;23.25;21.50;;;;;;;;5070863;27;51003;-56
2021/07/17 10:49:39;;;;;;;;;25.00;24.00;;;;;;;;5071115;27;50987;-56
2021/07/17 10:52:05;;;;;;;;;24.25;23.25;;;;;;;;5070113;28;51253;-55
2021/07/17 10:54:30;;;;;;;;;22.25;21.75;;;;;;;;5069655;28;51817;-56
2021/07/17 10:56:56;;;;;;;;;28.50;26.00;;;;;;;;5071452;28;50926;-57
2021/07/17 10:59:21;;;;;;;;;24.25;23.25;;;;;;;;5069976;28;51167;-57
2021/07/17 11:01:56;;;;;;;;;23.00;21.50;;;;;;;;5069334;28;50994;-56
2021/07/17 11:04:46;;;;;;;;;22.33;21.33;;;;;;;;5070172;28;52377;-55
2021/07/17 11:07:17;;;;;;;;;28.00;26.00;;;;;;;;5070666;27;50906;-55
2021/07/17 11:09:55;;;;;;;;;26.50;23.25;;;;;;;;5071064;27;51315;-55
2021/07/17 11:12:25;;;;;;;;;26.50;25.75;;;;;;;;5070729;27;51409;-59
2021/07/17 11:14:50;;;;;;;;;27.25;27.25;;;;;;;;5064997;28;52100;-54
2021/07/17 11:17:34;;;;;;;;;31.50;29.25;;;;;;;;5070206;27;50813;-57
2021/07/17 11:20:32;;;;;;;;;22.75;22.75;;;;;;;;5069939;28;51122;-56
2021/07/17 11:23:01;;;;;;;;;27.00;25.00;;;;;;;;5066270;27;51323;-54
2021/07/17 11:25:26;;;;;;;;;24.50;23.50;;;;;;;;5070406;27;51762;-55
2021/07/17 11:27:51;;;;;;;;;24.75;23.00;;;;;;;;5069699;27;51096;-56
2021/07/17 11:30:17;;;;;;;;;27.25;26.00;;;;;;;;5070780;28;51239;-56
2021/07/17 11:33:01;;;;;;;;;26.25;23.50;;;;;;;;5069543;27;51363;-58
2021/07/17 11:35:27;;;;;;;;;24.00;23.25;;;;;;;;5072825;28;52429;-54
2021/07/17 11:37:52;;;;;;;;;25.50;24.75;;;;;;;;5074023;27;51013;-55
2021/07/17 11:40:18;;;;;;;;;32.25;29.25;;;;;;;;5072597;28;51045;-56
2021/07/17 11:42:43;;;;;;;;;26.50;25.75;;;;;;;;5073957;27;51334;-56
2021/07/17 11:45:08;;;;;;;;;25.00;24.75;;;;;;;;5073585;27;52080;-55
2021/07/17 11:47:34;;;;;;;;;26.50;24.50;;;;;;;;5073786;28;50910;-62
2021/07/17 11:50:00;;;;;;;;;24.67;24.00;;;;;;;;5073728;27;50906;-56
2021/07/17 11:52:28;;;;;;;;;24.50;23.75;;;;;;;;5074113;27;51297;-58
2021/07/17 11:54:54;;;;;;;;;27.50;26.25;;;;;;;;5074123;27;50958;-55
2021/07/17 11:57:23;;;;;;;;;29.25;28.50;;;;;;;;5073585;28;51059;-56
2021/07/17 12:00:07;;;;;;;;;28.75;26.50;;;;;;;;5073763;27;51108;-57
2021/07/17 12:02:33;;;;;;;;;25.33;25.33;;;;;;;;5069050;27;51378;-57
2021/07/17 12:05:00;;;;;;;;;25.33;24.33;;;;;;;;5071760;27;51931;-57
2021/07/17 12:07:27;;;;;;;;;28.25;26.25;;;;;;;;5073209;27;50976;-55
2021/07/17 12:10:03;;;;;;;;;25.50;24.25;;;;;;;;5071932;28;50973;-55
2021/07/17 12:12:29;;;;;;;;;29.75;27.25;;;;;;;;5072516;28;51121;-56
2021/07/17 12:14:56;;;;;;;;;25.33;24.67;;;;;;;;5073947;28;50984;-58
2021/07/17 12:17:22;;;;;;;;;26.67;26.33;;;;;;;;5073391;27;50949;-56
2021/07/17 12:19:58;;;;;;;;;27.50;24.50;;;;;;;;5072743;27;50918;-55
2021/07/17 12:22:23;;;;;;;;;27.25;25.75;;;;;;;;5073281;28;50999;-55
2021/07/17 12:24:59;;;;;;;;;26.50;24.00;;;;;;;;5071759;28;52939;-54
2021/07/17 12:27:24;;;;;;;;;27.75;24.75;;;;;;;;5072536;27;51032;-57
2021/07/17 12:29:49;;;;;;;;;26.50;25.25;;;;;;;;5072850;28;51187;-56
2021/07/17 12:32:19;;;;;;;;;29.00;26.75;;;;;;;;5073232;27;51186;-56
2021/07/17 12:34:53;;;;;;;;;28.25;25.75;;;;;;;;5072406;27;52393;-56
2021/07/17 12:37:28;;;;;;;;;29.25;28.25;;;;;;;;5073025;27;50883;-56
2021/07/17 12:40:10;;;;;;;;;30.25;26.75;;;;;;;;5073438;27;51191;-56
2021/07/17 12:42:45;;;;;;;;;26.75;25.00;;;;;;;;5072075;28;51167;-55
2021/07/17 12:45:15;;;;;;;;;25.75;24.75;;;;;;;;5071267;28;51880;-55
2021/07/17 12:47:47;;;;;;;;;25.75;25.25;;;;;;;;5072715;27;51142;-56
2021/07/17 12:50:12;;;;;;;;;29.50;28.25;;;;;;;;5073045;27;51084;-55
2021/07/17 12:52:38;;;;;;;;;30.50;29.25;;;;;;;;5072532;28;51040;-57
2021/07/17 12:55:06;;;;;;;;;34.00;31.25;;;;;;;;5073556;28;51006;-57
2021/07/17 12:57:32;;;;;;;;;30.25;29.00;;;;;;;;5072404;27;51061;-54
2021/07/17 13:00:03;;;;;;;;;31.25;29.25;;;;;;;;5072881;27;51071;-58
2021/07/17 13:02:28;;;;;;;;;27.00;26.00;;;;;;;;5060425;28;51274;-56
2021/07/17 13:04:54;;;;;;;;;27.00;26.00;;;;;;;;5071244;27;51962;-57
2021/07/17 13:07:29;;;;;;;;;26.00;25.00;;;;;;;;5071132;27;51101;-54
2021/07/17 13:09:54;;;;;;;;;32.50;30.25;;;;;;;;5073383;27;51121;-56
2021/07/17 13:12:24;;;;;;;;;29.75;28.75;;;;;;;;5073597;28;50995;-55
2021/07/17 13:14:49;;;;;;;;;29.25;27.75;;;;;;;;5067409;28;52171;-58
2021/07/17 13:17:19;;;;;;;;;31.50;28.75;;;;;;;;5073047;28;51025;-56
2021/07/17 13:19:44;;;;;;;;;31.25;28.50;;;;;;;;5073025;28;51068;-57
2021/07/17 13:22:10;;;;;;;;;29.50;27.00;;;;;;;;5072980;27;51039;-55
2021/07/17 13:24:39;;;;;;;;;34.25;30.00;;;;;;;;5072341;27;52121;-53
2021/07/17 13:27:05;;;;;;;;;25.00;25.00;;;;;;;;5068356;27;51274;-57
2021/07/17 13:29:30;;;;;;;;;30.25;28.00;;;;;;;;5068080;27;51040;-57
2021/07/17 13:31:59;;;;;;;;;29.25;29.25;;;;;;;;5070930;28;51404;-54
2021/07/17 13:34:26;;;;;;;;;29.25;27.00;;;;;;;;5071569;27;51940;-54
2021/07/17 13:36:54;;;;;;;;;26.00;26.00;;;;;;;;5071622;27;51045;-57
2021/07/17 13:39:20;;;;;;;;;32.25;28.75;;;;;;;;5071180;27;51093;-56
2021/07/17 13:41:45;;;;;;;;;28.50;28.00;;;;;;;;5071859;27;51137;-55
2021/07/17 13:44:15;;;;;;;;;27.50;27.00;;;;;;;;5067449;27;51217;-55
2021/07/17 13:46:40;;;;;;;;;31.75;30.00;;;;;;;;5071772;27;51021;-57
2021/07/17 13:49:09;;;;;;;;;28.50;28.50;;;;;;;;5070942;27;51217;-54
2021/07/17 13:51:35;;;;;;;;;29.75;26.75;;;;;;;;5071968;27;51171;-53
2021/07/17 13:54:03;;;;;;;;;32.75;29.75;;;;;;;;5070391;28;52066;-56
2021/07/17 13:56:29;;;;;;;;;35.25;30.00;;;;;;;;5070848;27;51069;-56
2021/07/17 13:58:57;;;;;;;;;25.25;23.75;;;;;;;;5067729;27;51107;-56
2021/07/17 14:01:23;;;;;;;;;24.75;23.50;;;;;;;;5062441;28;51123;-55
2021/07/17 14:03:48;;;;;;;;;28.25;26.25;;;;;;;;5057449;27;55437;-59
2021/07/17 14:06:17;;;;;;;;;26.00;24.25;;;;;;;;5070794;27;50830;-57
2021/07/17 14:08:43;;;;;;;;;30.75;29.25;;;;;;;;5071552;27;50990;-55
2021/07/17 14:11:09;;;;;;;;;26.50;26.50;;;;;;;;5071301;27;51114;-55
2021/07/17 14:13:35;;;;;;;;;31.00;27.75;;;;;;;;5071059;27;50915;-56